createdAt,value
2022-09-04T00:01:43.135Z,100.00
2022-09-04T00:04:22.153Z,100.00
2022-09-04T00:07:13.573Z,100.00
2022-09-04T00:10:11.334Z,100.00
2022-09-04T00:12:49.327Z,100.00
2022-09-04T00:15:20.455Z,100.00
2022-09-04T00:17:55.981Z,100.00
2022-09-04T00:20:34.525Z,100.00
2022-09-04T00:23:14.263Z,100.00
2022-09-04T00:25:53.785Z,100.00
2022-09-04T00:28:41.626Z,100.00
2022-09-04T00:31:34.007Z,100.00
2022-09-04T00:34:27.931Z,100.00
2022-09-04T00:36:58.429Z,100.00
2022-09-04T00:39:40.756Z,100.00
2022-09-04T00:42:10.338Z,100.00
2022-09-04T00:45:07.756Z,100.00
2022-09-04T00:47:48.768Z,100.00
2022-09-04T00:50:47.230Z,100.00
2022-09-04T00:53:31.398Z,100.00
2022-09-04T00:56:12.252Z,100.00
2022-09-04T00:58:52.145Z,100.00
2022-09-04T01:01:23.981Z,100.00
2022-09-04T01:03:53.658Z,100.00
2022-09-04T01:06:21.717Z,100.00
2022-09-04T01:09:30.423Z,100.00
2022-09-04T01:12:13.069Z,100.00
2022-09-04T01:14:46.485Z,100.00
2022-09-04T01:17:27.709Z,100.00
2022-09-04T01:20:21.745Z,100.00
2022-09-04T01:23:10.191Z,100.00
2022-09-04T01:26:06.338Z,100.00
2022-09-04T01:28:47.220Z,100.00
2022-09-04T01:31:48.780Z,100.00
2022-09-04T01:34:49.529Z,100.00
2022-09-04T01:37:41.670Z,100.00
2022-09-04T01:40:36.482Z,100.00
2022-09-04T01:43:12.474Z,100.00
2022-09-04T01:46:01.095Z,100.00
2022-09-04T01:49:10.811Z,100.00
2022-09-04T01:52:05.616Z,100.00
2022-09-04T01:54:44.215Z,100.00
2022-09-04T01:57:15.747Z,100.00
2022-09-04T01:59:59.116Z,100.00
2022-09-04T02:02:28.812Z,100.00
2022-09-04T02:05:24.493Z,100.00
2022-09-04T02:08:18.447Z,100.00
2022-09-04T02:10:44.972Z,100.00
2022-09-04T02:13:44.971Z,100.00
2022-09-04T02:16:26.830Z,100.00
2022-09-04T02:19:12.354Z,100.00
2022-09-04T02:22:31.396Z,100.00
2022-09-04T02:25:44.488Z,100.00
2022-09-04T02:28:39.020Z,100.00
2022-09-04T02:31:19.176Z,100.00
2022-09-04T02:34:09.041Z,100.00
2022-09-04T02:36:46.863Z,100.00
2022-09-04T02:39:35.094Z,100.00
2022-09-04T02:42:13.037Z,100.00
2022-09-04T02:44:59.922Z,100.00
2022-09-04T02:47:32.810Z,100.00
2022-09-04T02:49:59.507Z,100.00
2022-09-04T02:52:41.847Z,100.00
2022-09-04T02:55:39.971Z,100.00
2022-09-04T02:58:29.293Z,100.00
2022-09-04T03:01:17.403Z,100.00
2022-09-04T03:03:46.787Z,100.00
2022-09-04T03:06:20.513Z,100.00
2022-09-04T03:08:51.891Z,100.00
2022-09-04T03:11:30.366Z,100.00
2022-09-04T03:14:04.909Z,100.00
2022-09-04T03:16:40.750Z,100.00
2022-09-04T03:19:16.558Z,100.00
2022-09-04T03:21:56.527Z,100.00
2022-09-04T03:24:27.639Z,100.00
2022-09-04T03:26:56.947Z,100.00
2022-09-04T03:29:41.004Z,100.00
2022-09-04T03:32:16.685Z,100.00
2022-09-04T03:35:14.397Z,100.00
2022-09-04T03:37:57.579Z,100.00
2022-09-04T03:40:32.983Z,100.00
2022-09-04T03:43:14.540Z,100.00
2022-09-04T03:45:49.957Z,100.00
2022-09-04T03:48:20.522Z,100.00
2022-09-04T03:51:26.761Z,100.00
2022-09-04T03:54:08.282Z,100.00
2022-09-04T03:56:43.843Z,100.00
2022-09-04T03:59:18.385Z,100.00
2022-09-04T04:02:06.586Z,100.00
2022-09-04T04:04:45.173Z,100.00
2022-09-04T04:07:17.823Z,100.00
2022-09-04T04:09:48.278Z,100.00
2022-09-04T04:12:18.999Z,100.00
2022-09-04T04:14:54.621Z,100.00
2022-09-04T04:18:19.696Z,100.00
2022-09-04T04:21:04.621Z,100.00
2022-09-04T04:23:56.525Z,100.00
2022-09-04T04:26:38.310Z,100.00
2022-09-04T04:29:27.784Z,100.00
2022-09-04T04:32:13.796Z,100.00
2022-09-04T04:35:04.155Z,100.00
2022-09-04T04:37:43.669Z,100.00
2022-09-04T04:40:39.499Z,100.00
2022-09-04T04:43:14.025Z,100.00
2022-09-04T04:46:05.488Z,100.00
2022-09-04T04:48:32.211Z,100.00
2022-09-04T04:50:59.417Z,100.00
2022-09-04T04:53:47.986Z,100.00
2022-09-04T04:56:50.847Z,100.00
2022-09-04T04:59:23.488Z,100.00
2022-09-04T05:02:04.807Z,100.00
2022-09-04T05:04:34.567Z,100.00
2022-09-04T05:07:19.599Z,100.00
2022-09-04T05:09:52.304Z,100.00
2022-09-04T05:12:51.973Z,100.00
2022-09-04T05:16:07.983Z,100.00
2022-09-04T05:18:48.276Z,100.00
2022-09-04T05:21:35.146Z,100.00
2022-09-04T05:24:01.652Z,100.00
2022-09-04T05:26:57.401Z,100.00
2022-09-04T05:29:32.282Z,100.00
2022-09-04T05:32:13.802Z,100.00
2022-09-04T05:35:02.775Z,100.00
2022-09-04T05:37:38.427Z,100.00
2022-09-04T05:40:19.985Z,100.00
2022-09-04T05:42:48.173Z,100.00
2022-09-04T05:45:23.950Z,100.00
2022-09-04T05:48:11.089Z,100.00
2022-09-04T05:50:49.517Z,100.00
2022-09-04T05:53:57.037Z,100.00
2022-09-04T05:56:44.267Z,100.00
2022-09-04T05:59:21.271Z,100.00
2022-09-04T06:02:15.824Z,100.00
2022-09-04T06:05:03.901Z,100.00
2022-09-04T06:07:50.757Z,100.00
2022-09-04T06:10:21.877Z,100.00
2022-09-04T06:12:57.833Z,100.00
2022-09-04T06:15:29.687Z,100.00
2022-09-04T06:18:30.035Z,100.00
2022-09-04T06:21:07.319Z,100.00
2022-09-04T06:23:49.114Z,100.00
2022-09-04T06:26:34.434Z,100.00
2022-09-04T06:29:05.889Z,100.00
2022-09-04T06:31:50.648Z,100.00
2022-09-04T06:34:23.177Z,100.00
2022-09-04T06:37:05.480Z,100.00
2022-09-04T06:39:47.426Z,100.00
2022-09-04T06:42:43.583Z,100.00
2022-09-04T06:45:28.669Z,100.00
2022-09-04T06:48:32.367Z,100.00
2022-09-04T06:51:21.902Z,100.00
2022-09-04T06:54:01.556Z,100.00
2022-09-04T06:56:49.834Z,100.00
2022-09-04T06:59:39.600Z,100.00
2022-09-04T07:02:44.685Z,100.00
2022-09-04T07:05:58.044Z,100.00
2022-09-04T07:08:46.449Z,100.00
2022-09-04T07:11:44.089Z,100.00
2022-09-04T07:14:41.437Z,100.00
2022-09-04T07:17:34.236Z,100.00
2022-09-04T07:20:15.483Z,100.00
2022-09-04T07:22:48.190Z,100.00
2022-09-04T07:25:26.348Z,100.00
2022-09-04T07:28:11.719Z,100.00
2022-09-04T07:30:53.945Z,100.00
2022-09-04T07:33:31.894Z,100.00
2022-09-04T07:36:07.992Z,100.00
2022-09-04T07:38:50.578Z,100.00
2022-09-04T07:41:42.039Z,100.00
2022-09-04T07:44:23.443Z,100.00
2022-09-04T07:47:01.287Z,100.00
2022-09-04T07:49:31.004Z,100.00
2022-09-04T07:52:07.839Z,100.00
2022-09-04T07:55:04.126Z,100.00
2022-09-04T07:57:54.865Z,100.00
2022-09-04T08:00:22.753Z,100.00
2022-09-04T08:02:58.403Z,100.00
2022-09-04T08:05:31.686Z,100.00
2022-09-04T08:08:17.946Z,100.00
2022-09-04T08:11:12.487Z,100.00
2022-09-04T08:13:54.295Z,100.00
2022-09-04T08:16:32.937Z,100.00
2022-09-04T08:19:31.280Z,100.00
2022-09-04T08:21:58.282Z,100.00
2022-09-04T08:24:28.026Z,100.00
2022-09-04T08:27:18.174Z,100.00
2022-09-04T08:29:45.528Z,100.00
2022-09-04T08:32:49.741Z,100.00
2022-09-04T08:35:22.716Z,100.00
2022-09-04T08:38:11.051Z,100.00
2022-09-04T08:40:59.339Z,100.00
2022-09-04T08:43:57.518Z,100.00
2022-09-04T08:46:47.420Z,100.00
2022-09-04T08:49:31.341Z,100.00
2022-09-04T08:52:19.383Z,100.00
2022-09-04T08:55:03.200Z,100.00
2022-09-04T08:57:43.057Z,100.00
2022-09-04T09:00:26.880Z,100.00
2022-09-04T09:03:11.512Z,100.00
2022-09-04T09:06:15.511Z,100.00
2022-09-04T09:08:50.975Z,100.00
2022-09-04T09:11:21.550Z,100.00
2022-09-04T09:14:02.526Z,100.00
2022-09-04T09:16:57.187Z,100.00
2022-09-04T09:20:00.149Z,100.00
2022-09-04T09:22:56.139Z,100.00
2022-09-04T09:25:44.779Z,100.00
2022-09-04T09:28:42.535Z,100.00
2022-09-04T09:31:30.461Z,100.00
2022-09-04T09:34:32.109Z,100.00
2022-09-04T09:37:10.761Z,100.00
2022-09-04T09:39:56.844Z,100.00
2022-09-04T09:42:50.218Z,100.00
2022-09-04T09:45:36.115Z,100.00
2022-09-04T09:48:11.922Z,100.00
2022-09-04T09:50:53.608Z,100.00
2022-09-04T09:53:46.861Z,100.00
2022-09-04T09:56:35.722Z,100.00
2022-09-04T09:59:19.826Z,100.00
2022-09-04T10:02:08.938Z,100.00
2022-09-04T10:04:50.295Z,100.00
2022-09-04T10:07:29.850Z,100.00
2022-09-04T10:10:03.093Z,100.00
2022-09-04T10:13:03.696Z,100.00
2022-09-04T10:15:50.243Z,100.00
2022-09-04T10:18:33.335Z,100.00
2022-09-04T10:21:21.682Z,42.04
2022-09-04T10:23:54.246Z,50.12
2022-09-04T10:26:48.260Z,51.20
2022-09-04T10:29:42.724Z,50.13
2022-09-04T10:32:28.041Z,50.93
2022-09-04T10:35:12.952Z,51.12
2022-09-04T10:38:05.579Z,49.31
2022-09-04T10:41:12.268Z,49.31
2022-09-04T10:44:15.215Z,49.42
2022-09-04T10:47:25.119Z,49.61
2022-09-04T10:50:12.820Z,48.86
2022-09-04T10:53:08.214Z,50.07
2022-09-04T10:55:42.467Z,49.97
2022-09-04T10:58:45.023Z,49.94
2022-09-04T11:01:35.679Z,48.21
2022-09-04T11:04:22.539Z,48.45
2022-09-04T11:07:12.314Z,49.13
2022-09-04T11:10:00.566Z,48.75
2022-09-04T11:12:57.963Z,48.76
2022-09-04T11:15:32.706Z,47.63
2022-09-04T11:18:19.241Z,48.78
2022-09-04T11:21:31.092Z,47.20
2022-09-04T11:24:20.991Z,46.38
2022-09-04T11:26:54.893Z,46.04
2022-09-04T11:29:55.874Z,46.53
2022-09-04T11:32:38.685Z,47.33
2022-09-04T11:35:33.335Z,47.31
2022-09-04T11:38:08.921Z,45.62
2022-09-04T11:40:58.271Z,44.76
2022-09-04T11:43:49.455Z,45.57
2022-09-04T11:46:41.460Z,44.04
2022-09-04T11:49:38.944Z,44.91
2022-09-04T11:52:44.266Z,45.66
2022-09-04T11:55:14.157Z,44.81
2022-09-04T11:57:48.621Z,45.67
2022-09-04T12:00:17.062Z,44.96
2022-09-04T12:03:13.167Z,44.50
2022-09-04T12:06:09.903Z,44.74
2022-09-04T12:08:39.373Z,44.59
2022-09-04T12:11:37.833Z,43.66
2022-09-04T12:14:04.349Z,44.16
2022-09-04T12:17:15.624Z,43.05
2022-09-04T12:19:58.403Z,45.62
2022-09-04T12:22:43.341Z,43.25
2022-09-04T12:25:34.264Z,43.40
2022-09-04T12:28:11.139Z,43.25
2022-09-04T12:30:44.231Z,42.92
2022-09-04T12:33:39.282Z,43.54
2022-09-04T12:36:24.374Z,43.91
2022-09-04T12:39:12.868Z,43.19
2022-09-04T12:41:59.706Z,42.54
2022-09-04T12:44:32.604Z,41.31
2022-09-04T12:47:23.718Z,41.60
2022-09-04T12:49:50.317Z,42.74
2022-09-04T12:52:28.760Z,43.23
2022-09-04T12:55:37.131Z,42.78
2022-09-04T12:58:14.607Z,43.06
2022-09-04T13:01:16.517Z,41.63
2022-09-04T13:04:01.193Z,41.73
2022-09-04T13:06:40.816Z,42.22
2022-09-04T13:09:16.387Z,42.46
2022-09-04T13:11:54.886Z,40.30
2022-09-04T13:14:43.009Z,42.02
2022-09-04T13:17:27.568Z,41.99
2022-09-04T13:20:12.772Z,42.89
2022-09-04T13:22:46.617Z,41.41
2022-09-04T13:25:27.326Z,42.42
2022-09-04T13:28:17.047Z,49.18
2022-09-04T13:31:00.070Z,41.57
2022-09-04T13:34:01.519Z,41.68
2022-09-04T13:36:35.499Z,40.96
2022-09-04T13:39:34.732Z,40.77
2022-09-04T13:42:10.908Z,41.15
2022-09-04T13:44:50.981Z,41.22
2022-09-04T13:47:31.954Z,41.04
2022-09-04T13:50:11.137Z,41.68
2022-09-04T13:53:02.913Z,41.73
2022-09-04T13:55:38.970Z,41.63
2022-09-04T13:58:13.846Z,41.37
2022-09-04T14:00:56.917Z,41.26
2022-09-04T14:03:35.927Z,41.06
2022-09-04T14:06:05.528Z,42.16
2022-09-04T14:08:33.595Z,41.10
2022-09-04T14:11:06.295Z,40.28
2022-09-04T14:13:44.753Z,40.20
2022-09-04T14:16:14.479Z,41.05
2022-09-04T14:18:57.070Z,40.61
2022-09-04T14:21:32.529Z,42.47
2022-09-04T14:24:08.014Z,42.15
2022-09-04T14:27:01.715Z,41.53
2022-09-04T14:29:37.740Z,41.55
2022-09-04T14:32:19.886Z,41.65
2022-09-04T14:34:58.942Z,42.39
2022-09-04T14:37:57.839Z,42.49
2022-09-04T14:40:34.325Z,41.64
2022-09-04T14:43:25.751Z,41.57
2022-09-04T14:46:04.819Z,41.72
2022-09-04T14:48:40.474Z,42.41
2022-09-04T14:51:15.292Z,41.51
2022-09-04T14:53:48.304Z,42.80
2022-09-04T14:56:24.249Z,40.95
2022-09-04T14:59:07.157Z,41.26
2022-09-04T15:01:37.076Z,42.64
2022-09-04T15:04:20.620Z,43.58
2022-09-04T15:07:10.757Z,43.00
2022-09-04T15:09:39.381Z,43.88
2022-09-04T15:12:34.972Z,43.71
2022-09-04T15:15:20.473Z,44.05
2022-09-04T15:18:01.788Z,42.11
2022-09-04T15:20:29.775Z,44.03
2022-09-04T15:22:59.777Z,44.96
2022-09-04T15:25:59.457Z,46.06
2022-09-04T15:28:34.524Z,42.49
2022-09-04T15:31:16.342Z,44.37
2022-09-04T15:33:45.561Z,43.59
2022-09-04T15:36:18.378Z,45.29
2022-09-04T15:38:51.865Z,43.90
2022-09-04T15:41:25.718Z,45.74
2022-09-04T15:44:11.118Z,44.06
2022-09-04T15:46:50.515Z,45.65
2022-09-04T15:49:58.660Z,46.58
2022-09-04T15:52:42.411Z,46.30
2022-09-04T15:55:09.005Z,44.28
2022-09-04T15:57:56.036Z,46.63
2022-09-04T16:00:26.402Z,47.75
2022-09-04T16:03:06.905Z,46.69
2022-09-04T16:05:47.234Z,47.70
2022-09-04T16:08:36.468Z,48.79
2022-09-04T16:11:12.374Z,48.87
2022-09-04T16:13:50.102Z,49.08
2022-09-04T16:16:19.439Z,47.23
2022-09-04T16:19:12.419Z,49.88
2022-09-04T16:21:48.707Z,49.63
2022-09-04T16:24:32.424Z,50.62
2022-09-04T16:26:59.510Z,50.94
2022-09-04T16:29:30.397Z,50.40
2022-09-04T16:31:57.959Z,50.98
2022-09-04T16:34:28.701Z,49.71
2022-09-04T16:37:01.975Z,50.94
2022-09-04T16:39:44.180Z,49.92
2022-09-04T16:42:21.993Z,50.53
2022-09-04T16:45:13.625Z,50.33
2022-09-04T16:47:52.030Z,51.94
2022-09-04T16:50:24.993Z,100.00
2022-09-04T16:53:13.334Z,100.00
2022-09-04T16:55:58.143Z,100.00
2022-09-04T16:58:35.783Z,100.00
2022-09-04T17:01:13.814Z,100.00
2022-09-04T17:04:12.569Z,100.00
2022-09-04T17:07:21.483Z,100.00
2022-09-04T17:10:03.184Z,51.94
2022-09-04T17:12:38.992Z,53.53
2022-09-04T17:15:48.548Z,53.53
2022-09-04T17:18:22.577Z,53.43
2022-09-04T17:22:07.214Z,53.20
2022-09-04T17:28:56.903Z,53.58
2022-09-04T17:29:14.609Z,53.42
2022-09-04T17:29:36.181Z,53.42
2022-09-04T17:34:31.461Z,54.67
2022-09-04T17:40:35.641Z,100.00
2022-09-04T17:40:56.105Z,100.00
2022-09-04T17:41:40.013Z,100.00
2022-09-04T17:44:29.469Z,54.67
2022-09-04T17:47:13.725Z,57.07
2022-09-04T17:49:46.815Z,57.29
2022-09-04T17:52:22.101Z,57.75
2022-09-04T17:54:49.614Z,57.84
2022-09-04T17:57:26.033Z,57.84
2022-09-04T18:00:04.798Z,100.00
2022-09-04T18:02:58.800Z,100.00
2022-09-04T18:05:36.493Z,100.00
2022-09-04T18:08:24.795Z,100.00
2022-09-04T18:11:12.508Z,100.00
2022-09-04T18:13:53.376Z,57.84
2022-09-04T18:16:35.267Z,59.34
2022-09-04T18:22:25.823Z,100.00
2022-09-04T18:25:17.247Z,100.00
2022-09-04T18:28:15.786Z,100.00
2022-09-04T18:37:11.980Z,100.00
2022-09-04T18:37:15.972Z,100.00
2022-09-04T18:37:45.857Z,100.00
2022-09-04T18:40:12.659Z,100.00
2022-09-04T18:50:22.854Z,100.00
2022-09-04T18:50:33.083Z,100.00
2022-09-04T18:50:48.706Z,100.00
2022-09-04T18:51:31.175Z,100.00
2022-09-04T18:54:09.597Z,100.00
2022-09-04T18:56:42.416Z,100.00
2022-09-04T18:59:25.213Z,100.00
2022-09-04T19:02:19.003Z,100.00
2022-09-04T19:04:56.080Z,100.00
2022-09-04T19:07:41.902Z,100.00
2022-09-04T19:10:18.828Z,100.00
2022-09-04T19:13:08.196Z,100.00
2022-09-04T19:16:00.057Z,100.00
2022-09-04T19:18:43.625Z,100.00
2022-09-04T19:21:14.762Z,100.00
2022-09-04T19:23:44.531Z,100.00
2022-09-04T19:26:21.049Z,100.00
2022-09-04T19:28:53.084Z,100.00
2022-09-04T19:31:32.211Z,100.00
2022-09-04T19:34:23.183Z,100.00
2022-09-04T19:37:04.973Z,100.00
2022-09-04T19:46:02.084Z,100.00
2022-09-04T19:46:18.700Z,100.00
2022-09-04T19:46:29.762Z,100.00
2022-09-04T19:50:48.810Z,100.00
2022-09-04T19:53:31.034Z,100.00
2022-09-04T19:55:23.945Z,100.00
2022-09-04T19:58:03.248Z,100.00
2022-09-04T20:00:42.257Z,100.00
2022-09-04T20:03:29.802Z,100.00
2022-09-04T20:06:19.735Z,100.00
2022-09-04T20:08:54.978Z,100.00
2022-09-04T20:11:43.347Z,100.00
2022-09-04T20:14:30.107Z,100.00
2022-09-04T20:17:00.216Z,100.00
2022-09-04T20:19:37.546Z,100.00
2022-09-04T20:22:32.060Z,100.00
2022-09-04T20:25:07.685Z,100.00
2022-09-04T20:27:40.395Z,100.00
2022-09-04T20:30:24.754Z,100.00
2022-09-04T20:33:06.583Z,100.00
2022-09-04T20:35:46.730Z,100.00
2022-09-04T20:38:30.510Z,100.00
2022-09-04T20:41:02.393Z,100.00
2022-09-04T20:43:51.115Z,100.00
2022-09-04T20:49:10.832Z,100.00
2022-09-04T20:52:53.679Z,100.00
2022-09-04T20:52:58.601Z,100.00
2022-09-04T20:55:49.985Z,100.00
2022-09-04T21:03:07.738Z,100.00
2022-09-04T21:03:19.849Z,100.00
2022-09-04T21:04:42.700Z,100.00
2022-09-04T21:07:19.578Z,100.00
2022-09-04T21:09:58.697Z,100.00
2022-09-04T21:12:46.391Z,100.00
2022-09-04T21:15:46.892Z,100.00
2022-09-04T21:18:19.886Z,100.00
2022-09-04T21:21:14.406Z,100.00
2022-09-04T21:24:06.942Z,100.00
2022-09-04T21:26:54.385Z,100.00
2022-09-04T21:29:26.730Z,100.00
2022-09-04T21:32:23.153Z,100.00
2022-09-04T21:35:00.834Z,100.00
2022-09-04T21:37:46.674Z,100.00
2022-09-04T21:40:52.729Z,100.00
2022-09-04T21:43:45.501Z,100.00
2022-09-04T21:46:15.095Z,100.00
2022-09-04T21:49:00.937Z,100.00
2022-09-04T21:51:54.377Z,100.00
2022-09-04T21:59:43.880Z,100.00
2022-09-04T22:02:31.820Z,100.00
2022-09-04T22:02:35.905Z,100.00
2022-09-04T22:04:27.546Z,100.00
2022-09-04T22:09:30.239Z,100.00
2022-09-04T22:13:32.891Z,100.00
2022-09-04T22:13:48.238Z,100.00
2022-09-04T22:16:49.281Z,100.00
2022-09-04T22:19:51.199Z,100.00
2022-09-04T22:22:40.671Z,100.00
2022-09-04T22:25:19.444Z,100.00
2022-09-04T22:28:08.317Z,100.00
2022-09-04T22:30:57.203Z,100.00
2022-09-04T22:34:16.053Z,100.00
2022-09-04T22:37:00.723Z,100.00
2022-09-04T22:39:42.816Z,100.00
2022-09-04T22:42:25.171Z,100.00
2022-09-04T22:45:10.356Z,100.00
2022-09-04T22:47:59.007Z,100.00
2022-09-04T22:50:49.369Z,100.00
2022-09-04T22:53:35.792Z,100.00
2022-09-04T22:56:24.093Z,100.00
2022-09-04T22:59:25.619Z,100.00
2022-09-04T23:02:54.173Z,100.00
2022-09-04T23:05:33.906Z,100.00
2022-09-04T23:13:53.998Z,100.00
2022-09-04T23:14:01.715Z,100.00
2022-09-04T23:14:29.307Z,100.00
2022-09-04T23:17:05.308Z,100.00
2022-09-04T23:24:41.091Z,100.00
2022-09-04T23:26:41.493Z,100.00
2022-09-04T23:26:42.223Z,100.00
2022-09-04T23:28:59.109Z,100.00
2022-09-04T23:31:43.894Z,100.00
2022-09-04T23:34:39.684Z,100.00
2022-09-04T23:37:25.765Z,100.00
2022-09-04T23:40:24.317Z,100.00
2022-09-04T23:43:18.849Z,100.00
2022-09-04T23:46:33.634Z,100.00
2022-09-04T23:49:23.913Z,100.00
2022-09-04T23:52:26.540Z,100.00
2022-09-04T23:55:28.484Z,100.00
2022-09-04T23:59:09.107Z,100.00
